Terminal Aerodrome Forecast
Issued by NWS

Home | Current Version | Previous Version | Text Only | Print | Product List | Glossary On
Versions: 1 2 3 4 5 6 7 8 9 10 11 12 13 14 15 16 17
424
FTUS43 KIND 260525
TAFBMG
TAF
KBMG 260525Z 2606/2706 00000KT P6SM SCT035 BKN250
      TEMPO 2609/2613 4SM BR
     FM261500 07006KT P6SM SCT030 BKN100
     FM270200 07004KT P6SM BKN100
      AMD LTD TO CLD VIS AND WIND TIL 261300=

USA.gov is the U.S. government's official web portal to all federal, state and local government web resources and services.